Time;durP1;ratioP1;P1;durP2;ratioP2;P2;SDS_P1;SDS_P2;PMS_P1;PMS_P2;Temp;Humidity;BMP_temperature;BMP_pressure;BME280_temperature;BME280_humidity;BME280_pressure;Samples;Min_cycle;Max_cycle;Signal;HPM_P1;HPM_P2
2023/01/07 00:01:44;;;;;;;25.10;12.38;;;;;;;;;;5908002;23;20462;-94
2023/01/07 00:04:11;;;;;;;25.75;10.82;;;;;;;;;;6148087;23;20092;-93
2023/01/07 00:09:37;;;;;;;29.02;13.02;;;;;;;;;;6226466;23;20043;-93
2023/01/07 00:25:02;;;;;;;28.77;11.95;;;;;;;;;;6071752;23;20008;-94
2023/01/07 00:28:44;;;;;;;31.33;15.27;;;;;;;;;;6141668;23;20046;-93
2023/01/07 00:37:50;;;;;;;31.88;15.68;;;;;;;;;;6002748;23;20716;-93
2023/01/07 00:40:29;;;;;;;32.40;13.98;;;;;;;;;;5958788;23;20011;-93
2023/01/07 00:56:03;;;;;;;27.77;15.10;;;;;;;;;;6081574;23;20052;-93
2023/01/07 00:59:05;;;;;;;30.27;14.07;;;;;;;;;;6056384;23;20002;-94
2023/01/07 01:01:32;;;;;;;26.45;14.20;;;;;;;;;;6042603;23;20045;-93
2023/01/07 01:04:01;;;;;;;25.95;13.60;;;;;;;;;;6145672;23;20020;-93
2023/01/07 01:10:08;;;;;;;24.27;11.25;;;;;;;;;;6166995;23;20033;-95
2023/01/07 01:24:37;;;;;;;23.52;11.23;;;;;;;;;;6236797;22;20025;-95
2023/01/07 01:27:03;;;;;;;14.00;7.10;;;;;;;;;;6195642;23;20066;-95
2023/01/07 01:29:29;;;;;;;19.23;10.35;;;;;;;;;;6224247;23;20000;-95
2023/01/07 01:31:55;;;;;;;19.63;10.20;;;;;;;;;;6197985;23;20344;-95
2023/01/07 01:34:21;;;;;;;18.52;9.10;;;;;;;;;;6222307;23;20011;-96
2023/01/07 01:36:47;;;;;;;14.75;7.45;;;;;;;;;;6199312;23;20095;-95
2023/01/07 01:39:13;;;;;;;11.70;6.50;;;;;;;;;;6197991;23;20483;-96
2023/01/07 01:41:39;;;;;;;21.70;10.18;;;;;;;;;;6198135;23;20012;-94
2023/01/07 01:44:24;;;;;;;17.92;8.43;;;;;;;;;;6223413;23;20004;-94
2023/01/07 01:46:50;;;;;;;24.00;12.07;;;;;;;;;;6223486;23;20004;-94
2023/01/07 01:49:31;;;;;;;25.85;12.43;;;;;;;;;;6198052;23;20047;-96
2023/01/07 01:52:11;;;;;;;19.95;10.75;;;;;;;;;;6222916;23;20033;-95
2023/01/07 01:54:39;;;;;;;14.82;7.63;;;;;;;;;;6223725;23;20417;-94
2023/01/07 01:57:06;;;;;;;14.10;6.80;;;;;;;;;;6222764;23;20004;-95
2023/01/07 01:59:34;;;;;;;18.90;9.70;;;;;;;;;;6198252;23;20015;-94
2023/01/07 02:02:00;;;;;;;21.95;11.02;;;;;;;;;;6223645;23;20034;-95
2023/01/07 02:04:27;;;;;;;9.40;5.55;;;;;;;;;;6222770;23;20008;-95
2023/01/07 02:06:56;;;;;;;24.17;12.38;;;;;;;;;;6198098;23;20012;-95
2023/01/07 02:09:22;;;;;;;27.17;11.88;;;;;;;;;;6223156;23;20413;-94
2023/01/07 02:11:48;;;;;;;23.42;10.75;;;;;;;;;;6198000;23;20043;-94
2023/01/07 02:14:26;;;;;;;16.05;8.32;;;;;;;;;;6223129;23;20027;-95
2023/01/07 02:17:17;;;;;;;29.38;12.68;;;;;;;;;;6222901;23;20036;-95
2023/01/07 02:19:46;;;;;;;24.73;12.93;;;;;;;;;;6222771;23;20054;-95
2023/01/07 02:22:15;;;;;;;24.60;12.60;;;;;;;;;;6240494;22;20367;-95
2023/01/07 02:25:01;;;;;;;27.27;12.98;;;;;;;;;;6249417;22;20020;-94
2023/01/07 02:27:57;;;;;;;31.58;12.90;;;;;;;;;;6227215;23;20004;-96
2023/01/07 02:30:23;;;;;;;21.90;11.32;;;;;;;;;;6143936;22;20373;-95
2023/01/07 02:32:55;;;;;;;22.67;11.52;;;;;;;;;;6247836;23;20054;-96
2023/01/07 02:35:31;;;;;;;25.20;12.13;;;;;;;;;;6246963;23;20424;-94
2023/01/07 02:38:03;;;;;;;20.88;10.50;;;;;;;;;;6248037;23;20005;-94
2023/01/07 02:40:42;;;;;;;24.83;11.98;;;;;;;;;;6247005;23;20336;-95
2023/01/07 02:43:34;;;;;;;23.63;12.27;;;;;;;;;;6247223;23;20004;-94
2023/01/07 02:46:09;;;;;;;19.15;10.52;;;;;;;;;;6201920;23;20453;-95
2023/01/07 02:48:36;;;;;;;16.88;8.82;;;;;;;;;;6248279;23;20009;-95
2023/01/07 02:51:02;;;;;;;26.95;12.05;;;;;;;;;;6222570;23;20013;-96
2023/01/07 02:53:28;;;;;;;21.60;11.43;;;;;;;;;;6222456;23;20046;-96
2023/01/07 02:56:06;;;;;;;25.92;12.27;;;;;;;;;;6246983;23;20008;-94
2023/01/07 02:58:51;;;;;;;25.02;13.02;;;;;;;;;;6247298;23;20488;-95
2023/01/07 03:01:17;;;;;;;24.83;12.93;;;;;;;;;;6247584;23;20011;-96
2023/01/07 03:03:59;;;;;;;17.40;9.93;;;;;;;;;;6246968;23;20015;-95
2023/01/07 03:06:43;;;;;;;25.80;14.20;;;;;;;;;;6248698;23;20015;-96
2023/01/07 03:09:09;;;;;;;23.83;12.57;;;;;;;;;;6247447;23;20012;-95
2023/01/07 03:11:42;;;;;;;20.67;11.70;;;;;;;;;;6246936;23;20008;-95
2023/01/07 03:14:11;;;;;;;24.67;13.73;;;;;;;;;;6248312;23;20004;-95
2023/01/07 03:16:42;;;;;;;16.77;8.35;;;;;;;;;;6247642;23;20004;-95
2023/01/07 03:19:16;;;;;;;26.33;13.82;;;;;;;;;;6246947;23;20432;-95
2023/01/07 03:21:43;;;;;;;14.98;8.27;;;;;;;;;;6246716;23;20004;-95
2023/01/07 03:24:09;;;;;;;12.68;7.68;;;;;;;;;;6247737;22;20066;-95
2023/01/07 03:26:38;;;;;;;22.20;12.73;;;;;;;;;;6247078;23;20004;-95
2023/01/07 03:29:06;;;;;;;21.98;11.55;;;;;;;;;;6247502;23;20005;-95
2023/01/07 03:31:33;;;;;;;20.25;11.90;;;;;;;;;;6247234;23;20000;-96
2023/01/07 03:33:59;;;;;;;9.25;5.68;;;;;;;;;;6222850;23;20012;-95
2023/01/07 03:36:29;;;;;;;17.52;10.05;;;;;;;;;;6249003;23;20103;-96
2023/01/07 03:38:56;;;;;;;12.05;6.45;;;;;;;;;;6249011;23;20000;-96
2023/01/07 03:44:07;;;;;;;22.58;11.35;;;;;;;;;;6250241;23;20023;-95
2023/01/07 03:46:34;;;;;;;12.68;7.32;;;;;;;;;;6249480;23;20015;-95
2023/01/07 03:49:00;;;;;;;20.15;11.50;;;;;;;;;;6224401;23;20016;-95
2023/01/07 03:51:26;;;;;;;20.60;12.57;;;;;;;;;;6223852;23;20313;-95
2023/01/07 03:53:52;;;;;;;20.80;11.35;;;;;;;;;;6223992;23;20037;-95
2023/01/07 03:56:18;;;;;;;13.60;8.18;;;;;;;;;;6224618;23;20380;-95
2023/01/07 03:58:44;;;;;;;16.08;9.70;;;;;;;;;;6223867;23;20400;-96
2023/01/07 04:01:10;;;;;;;22.88;12.48;;;;;;;;;;6223500;23;20008;-96
2023/01/07 04:03:36;;;;;;;22.83;11.80;;;;;;;;;;6223235;23;20012;-95
2023/01/07 04:06:02;;;;;;;10.63;6.18;;;;;;;;;;6223754;23;20099;-96
2023/01/07 04:08:28;;;;;;;22.65;10.98;;;;;;;;;;6223874;23;20062;-95
2023/01/07 04:10:54;;;;;;;21.45;13.07;;;;;;;;;;6224033;23;20058;-96
2023/01/07 04:13:20;;;;;;;17.30;9.82;;;;;;;;;;6223348;23;20012;-96
2023/01/07 04:15:46;;;;;;;21.73;10.57;;;;;;;;;;6223301;23;20052;-96
2023/01/07 04:18:12;;;;;;;21.67;12.60;;;;;;;;;;6223046;23;20436;-95
2023/01/07 04:20:38;;;;;;;21.42;11.95;;;;;;;;;;6223548;23;20360;-96
2023/01/07 04:23:04;;;;;;;18.50;10.38;;;;;;;;;;6223439;23;20008;-96
2023/01/07 04:25:31;;;;;;;23.65;12.68;;;;;;;;;;6224693;22;20064;-95
2023/01/07 04:27:57;;;;;;;18.35;10.35;;;;;;;;;;6249706;23;20015;-96
2023/01/07 04:30:23;;;;;;;17.17;9.20;;;;;;;;;;6223608;23;20008;-96
2023/01/07 04:32:50;;;;;;;13.75;8.10;;;;;;;;;;6223077;23;20063;-96
2023/01/07 04:35:16;;;;;;;17.67;9.80;;;;;;;;;;6223999;23;20012;-96
2023/01/07 04:37:42;;;;;;;20.83;11.35;;;;;;;;;;6248490;23;20429;-96
2023/01/07 04:40:08;;;;;;;18.30;11.20;;;;;;;;;;6224098;23;20388;-95
2023/01/07 04:42:34;;;;;;;14.35;8.85;;;;;;;;;;6224360;23;20012;-96
2023/01/07 04:45:00;;;;;;;14.27;8.80;;;;;;;;;;6224361;23;20428;-95
2023/01/07 04:47:26;;;;;;;23.50;11.43;;;;;;;;;;6225603;23;20008;-96
2023/01/07 04:49:52;;;;;;;19.55;11.43;;;;;;;;;;6224930;23;20012;-95
2023/01/07 04:52:18;;;;;;;21.95;11.27;;;;;;;;;;6224825;23;20012;-96
2023/01/07 04:54:44;;;;;;;21.58;10.73;;;;;;;;;;6224275;23;20008;-96
2023/01/07 04:57:11;;;;;;;19.83;8.10;;;;;;;;;;6224806;23;20014;-95
2023/01/07 04:59:37;;;;;;;22.33;12.18;;;;;;;;;;6224493;23;20012;-96
2023/01/07 05:02:03;;;;;;;16.27;7.13;;;;;;;;;;6224895;23;20325;-96
2023/01/07 05:04:29;;;;;;;21.05;12.18;;;;;;;;;;6222531;23;20061;-96
2023/01/07 05:06:55;;;;;;;20.65;11.50;;;;;;;;;;6223172;23;20095;-96
2023/01/07 05:09:21;;;;;;;15.07;9.35;;;;;;;;;;6248673;23;20098;-96
2023/01/07 05:11:47;;;;;;;24.15;12.77;;;;;;;;;;6223417;23;20012;-96
2023/01/07 05:14:13;;;;;;;19.92;11.63;;;;;;;;;;6223696;23;20026;-96
2023/01/07 05:16:40;;;;;;;20.33;11.82;;;;;;;;;;6223567;23;20337;-96
2023/01/07 05:19:06;;;;;;;27.42;10.40;;;;;;;;;;6223567;23;20340;-94
2023/01/07 05:21:32;;;;;;;13.50;8.18;;;;;;;;;;6223285;23;20379;-96
2023/01/07 05:23:58;;;;;;;16.48;9.02;;;;;;;;;;6249394;22;20016;-96
2023/01/07 05:26:24;;;;;;;18.70;10.45;;;;;;;;;;6223785;23;20012;-96
2023/01/07 05:28:50;;;;;;;21.15;9.48;;;;;;;;;;6222957;23;20085;-96
2023/01/07 05:31:16;;;;;;;13.52;5.97;;;;;;;;;;6223152;23;20023;-96
2023/01/07 05:33:48;;;;;;;24.17;11.85;;;;;;;;;;6223022;23;20012;-96
2023/01/07 05:36:14;;;;;;;22.90;10.82;;;;;;;;;;6222914;23;20004;-96
2023/01/07 05:38:40;;;;;;;10.98;6.50;;;;;;;;;;6222944;23;20013;-96
2023/01/07 05:41:07;;;;;;;10.55;6.13;;;;;;;;;;6223239;23;20000;-95
2023/01/07 05:43:33;;;;;;;20.00;9.70;;;;;;;;;;6223570;23;20015;-96
2023/01/07 05:45:59;;;;;;;9.80;5.75;;;;;;;;;;6223939;23;20012;-96
2023/01/07 05:48:25;;;;;;;12.80;7.13;;;;;;;;;;6248687;23;20111;-96
2023/01/07 05:50:51;;;;;;;18.63;9.95;;;;;;;;;;6223615;23;20012;-95
2023/01/07 05:53:18;;;;;;;17.17;9.85;;;;;;;;;;6223660;23;20013;-96
2023/01/07 05:55:44;;;;;;;16.35;8.48;;;;;;;;;;6248108;23;20000;-96
2023/01/07 05:58:10;;;;;;;18.60;9.68;;;;;;;;;;6222799;23;20091;-96
2023/01/07 06:00:36;;;;;;;22.40;7.63;;;;;;;;;;6248451;23;20000;-96
2023/01/07 06:03:03;;;;;;;15.80;9.25;;;;;;;;;;6248238;23;20000;-95
2023/01/07 06:05:29;;;;;;;9.15;4.80;;;;;;;;;;6223239;23;20008;-96
2023/01/07 06:08:01;;;;;;;18.58;9.15;;;;;;;;;;6222748;23;20428;-96
2023/01/07 06:10:27;;;;;;;15.75;7.90;;;;;;;;;;6247971;23;20020;-96
2023/01/07 06:12:53;;;;;;;17.92;7.05;;;;;;;;;;6221994;23;20012;-96
2023/01/07 06:15:19;;;;;;;18.15;8.13;;;;;;;;;;6223250;23;20011;-95
2023/01/07 06:17:46;;;;;;;17.25;7.82;;;;;;;;;;6223570;23;20458;-96
2023/01/07 06:20:13;;;;;;;11.10;5.70;;;;;;;;;;6222916;23;20030;-96
2023/01/07 06:22:39;;;;;;;10.57;6.93;;;;;;;;;;6248130;23;20004;-96
2023/01/07 06:25:12;;;;;;;23.50;9.82;;;;;;;;;;6225304;22;20024;-95
2023/01/07 06:27:42;;;;;;;11.55;6.28;;;;;;;;;;6222507;23;20099;-96
2023/01/07 06:30:08;;;;;;;14.40;8.35;;;;;;;;;;6247723;23;20424;-96
2023/01/07 06:32:38;;;;;;;17.55;7.80;;;;;;;;;;6247865;23;20008;-96
2023/01/07 06:35:05;;;;;;;12.23;5.88;;;;;;;;;;6247720;23;20004;-96
2023/01/07 06:37:31;;;;;;;13.88;8.48;;;;;;;;;;6223272;23;20027;-96
2023/01/07 06:39:57;;;;;;;9.63;5.30;;;;;;;;;;6224347;23;20027;-95
2023/01/07 06:42:23;;;;;;;20.10;5.43;;;;;;;;;;6222513;23;20436;-95
2023/01/07 06:44:49;;;;;;;16.88;8.95;;;;;;;;;;6248007;23;20459;-96
2023/01/07 06:47:16;;;;;;;18.92;9.23;;;;;;;;;;6247518;23;20035;-95
2023/01/07 06:49:42;;;;;;;18.27;9.75;;;;;;;;;;6222329;23;20391;-95
2023/01/07 06:52:08;;;;;;;19.13;9.02;;;;;;;;;;6247557;23;20015;-96
2023/01/07 06:54:34;;;;;;;10.35;6.82;;;;;;;;;;6247575;23;20012;-96
2023/01/07 06:57:00;;;;;;;14.73;8.45;;;;;;;;;;6247155;23;20099;-96
2023/01/07 06:59:26;;;;;;;21.02;7.63;;;;;;;;;;6247502;23;20058;-95
2023/01/07 07:01:52;;;;;;;15.90;9.00;;;;;;;;;;6222282;23;20033;-96
2023/01/07 07:04:18;;;;;;;15.55;6.60;;;;;;;;;;6222226;23;20008;-96
2023/01/07 07:06:44;;;;;;;13.02;7.95;;;;;;;;;;6222030;23;20032;-96
2023/01/07 07:09:10;;;;;;;13.57;6.53;;;;;;;;;;6222744;23;20031;-96
2023/01/07 07:11:36;;;;;;;15.88;7.10;;;;;;;;;;6224351;23;20004;-96
2023/01/07 07:14:03;;;;;;;12.07;7.38;;;;;;;;;;6225250;23;20014;-96
2023/01/07 07:16:29;;;;;;;14.40;6.82;;;;;;;;;;6248292;23;20059;-96
2023/01/07 07:18:55;;;;;;;14.23;7.55;;;;;;;;;;6224078;23;20004;-95
2023/01/07 07:21:21;;;;;;;14.88;6.43;;;;;;;;;;6223986;23;20412;-96
2023/01/07 07:23:47;;;;;;;9.63;5.60;;;;;;;;;;6224036;23;20012;-96
2023/01/07 07:26:13;;;;;;;11.25;5.78;;;;;;;;;;6250967;22;20053;-95
2023/01/07 07:28:41;;;;;;;8.30;4.90;;;;;;;;;;6224203;23;20013;-96
2023/01/07 07:31:07;;;;;;;18.33;5.78;;;;;;;;;;6224982;23;20038;-96
2023/01/07 07:33:34;;;;;;;10.38;5.97;;;;;;;;;;6224065;23;20008;-96
2023/01/07 07:36:00;;;;;;;12.57;6.80;;;;;;;;;;6249505;23;20090;-96
2023/01/07 07:38:26;;;;;;;8.23;3.67;;;;;;;;;;6249134;23;20405;-96
2023/01/07 07:40:52;;;;;;;12.82;6.35;;;;;;;;;;6224611;23;20008;-95
2023/01/07 07:43:18;;;;;;;9.88;4.82;;;;;;;;;;6224352;23;20497;-96
2023/01/07 07:45:44;;;;;;;11.48;6.00;;;;;;;;;;6224240;23;20008;-95
2023/01/07 07:48:12;;;;;;;17.67;6.57;;;;;;;;;;6223680;23;20099;-96
2023/01/07 07:50:38;;;;;;;10.52;5.03;;;;;;;;;;6249226;23;20033;-95
2023/01/07 07:53:08;;;;;;;25.67;6.45;;;;;;;;;;6248383;23;20424;-96
2023/01/07 07:55:38;;;;;;;10.48;6.07;;;;;;;;;;6224033;23;20008;-96
2023/01/07 07:58:04;;;;;;;9.52;4.28;;;;;;;;;;6223254;23;20057;-95
2023/01/07 08:00:30;;;;;;;11.43;5.25;;;;;;;;;;6223720;23;20008;-96
2023/01/07 08:02:59;;;;;;;9.05;5.25;;;;;;;;;;6224062;23;20451;-96
2023/01/07 08:05:26;;;;;;;13.35;5.32;;;;;;;;;;6249210;23;20424;-95
2023/01/07 08:07:53;;;;;;;12.13;4.28;;;;;;;;;;6248856;23;20010;-96
2023/01/07 08:10:19;;;;;;;10.13;6.15;;;;;;;;;;6224088;23;20012;-96
2023/01/07 08:12:46;;;;;;;10.32;5.80;;;;;;;;;;6223629;23;20009;-96
2023/01/07 08:15:12;;;;;;;6.68;4.70;;;;;;;;;;6248644;23;20004;-96
2023/01/07 08:17:38;;;;;;;10.80;5.88;;;;;;;;;;6248924;23;20039;-96
2023/01/07 08:20:05;;;;;;;7.97;4.82;;;;;;;;;;6224090;23;20004;-96
2023/01/07 08:22:32;;;;;;;9.88;5.47;;;;;;;;;;6225127;23;20474;-96
2023/01/07 08:24:58;;;;;;;4.80;3.25;;;;;;;;;;6225597;22;20024;-96
2023/01/07 08:27:26;;;;;;;7.80;4.78;;;;;;;;;;6223473;23;20012;-96
2023/01/07 08:29:52;;;;;;;10.65;5.90;;;;;;;;;;6248583;23;20008;-96
2023/01/07 08:32:19;;;;;;;11.15;5.45;;;;;;;;;;6248971;23;20107;-95
2023/01/07 08:34:45;;;;;;;11.48;5.78;;;;;;;;;;6248436;23;20425;-95
2023/01/07 08:37:11;;;;;;;12.68;6.25;;;;;;;;;;6223558;23;20467;-96
2023/01/07 08:39:37;;;;;;;6.85;4.20;;;;;;;;;;6223397;23;20004;-96
2023/01/07 08:42:03;;;;;;;9.90;5.18;;;;;;;;;;6248590;23;20027;-96
2023/01/07 08:44:29;;;;;;;8.68;3.75;;;;;;;;;;6223324;23;20436;-96
2023/01/07 08:46:55;;;;;;;9.35;4.35;;;;;;;;;;6223288;23;20008;-96
2023/01/07 08:49:22;;;;;;;9.95;5.35;;;;;;;;;;6249017;23;20388;-96
2023/01/07 08:51:48;;;;;;;7.97;3.63;;;;;;;;;;6248656;23;20057;-96
2023/01/07 08:54:14;;;;;;;7.05;4.53;;;;;;;;;;6223390;23;20008;-96
2023/01/07 08:56:40;;;;;;;6.72;4.47;;;;;;;;;;6224262;23;20421;-96
2023/01/07 08:59:06;;;;;;;13.82;2.83;;;;;;;;;;6223741;23;20008;-96
2023/01/07 09:01:32;;;;;;;9.65;4.07;;;;;;;;;;6249113;23;20095;-96
2023/01/07 09:03:59;;;;;;;12.43;3.78;;;;;;;;;;6224024;23;20019;-96
2023/01/07 09:06:25;;;;;;;6.28;3.92;;;;;;;;;;6224037;23;20444;-96
2023/01/07 09:08:51;;;;;;;14.13;4.15;;;;;;;;;;6223528;23;20020;-96
2023/01/07 09:11:17;;;;;;;8.73;2.90;;;;;;;;;;6223227;23;20008;-96
2023/01/07 09:13:43;;;;;;;10.43;3.95;;;;;;;;;;6222989;23;20012;-96
2023/01/07 09:16:09;;;;;;;6.05;3.08;;;;;;;;;;6224624;23;20008;-96
2023/01/07 09:18:35;;;;;;;4.50;3.00;;;;;;;;;;6224080;23;20058;-96
2023/01/07 09:21:01;;;;;;;8.43;2.70;;;;;;;;;;6223921;23;20052;-96
2023/01/07 09:23:27;;;;;;;4.18;2.78;;;;;;;;;;6249580;23;20360;-96
2023/01/07 09:25:53;;;;;;;5.22;3.08;;;;;;;;;;6249782;22;20020;-96
2023/01/07 09:28:19;;;;;;;6.45;4.10;;;;;;;;;;6223949;23;20012;-96
2023/01/07 09:30:45;;;;;;;8.13;4.85;;;;;;;;;;6222918;23;20027;-95
2023/01/07 09:33:12;;;;;;;10.07;3.50;;;;;;;;;;6223029;23;20344;-96
2023/01/07 09:35:38;;;;;;;7.15;3.25;;;;;;;;;;6222774;23;20008;-96
2023/01/07 09:38:04;;;;;;;6.45;4.07;;;;;;;;;;6222705;23;20074;-96
2023/01/07 09:40:38;;;;;;;7.10;3.50;;;;;;;;;;6222610;23;20497;-96
2023/01/07 09:43:13;;;;;;;4.25;3.22;;;;;;;;;;6247502;23;20008;-96
2023/01/07 09:46:00;;;;;;;8.85;3.40;;;;;;;;;;6247816;23;20008;-96
2023/01/07 09:48:28;;;;;;;7.40;3.08;;;;;;;;;;6248531;23;20004;-96
2023/01/07 09:50:54;;;;;;;7.28;2.47;;;;;;;;;;6249735;23;20031;-95
2023/01/07 09:53:40;;;;;;;7.22;3.45;;;;;;;;;;6248617;23;20436;-95
2023/01/07 09:56:11;;;;;;;5.95;3.38;;;;;;;;;;6248371;23;20004;-96
2023/01/07 09:58:38;;;;;;;5.97;3.40;;;;;;;;;;6248144;23;20011;-96
2023/01/07 10:01:23;;;;;;;5.95;3.40;;;;;;;;;;6223135;23;20435;-96
2023/01/07 10:04:08;;;;;;;4.05;3.33;;;;;;;;;;6248080;23;20447;-95
2023/01/07 10:06:52;;;;;;;9.98;3.55;;;;;;;;;;6249565;23;20007;-96
2023/01/07 10:09:25;;;;;;;7.90;2.90;;;;;;;;;;6248750;23;20389;-95
2023/01/07 10:11:54;;;;;;;10.50;3.47;;;;;;;;;;6249649;23;20058;-95
2023/01/07 10:14:29;;;;;;;5.50;2.45;;;;;;;;;;6248490;23;20027;-96
2023/01/07 10:17:18;;;;;;;6.53;3.05;;;;;;;;;;6248125;23;20035;-96
2023/01/07 10:19:53;;;;;;;6.10;3.17;;;;;;;;;;6249011;23;20007;-96
2023/01/07 10:22:21;;;;;;;7.00;3.85;;;;;;;;;;6248732;23;20073;-96
2023/01/07 10:24:50;;;;;;;4.63;2.22;;;;;;;;;;6249780;22;20054;-95
2023/01/07 10:27:41;;;;;;;3.60;2.20;;;;;;;;;;6259564;23;20000;-96
2023/01/07 10:30:17;;;;;;;11.50;2.90;;;;;;;;;;6258631;22;20047;-96
2023/01/07 10:32:56;;;;;;;4.78;2.42;;;;;;;;;;6268971;23;19992;-96
2023/01/07 10:35:29;;;;;;;8.23;3.67;;;;;;;;;;6269674;23;20000;-96
2023/01/07 10:38:19;;;;;;;4.05;2.53;;;;;;;;;;6269851;23;19992;-96
2023/01/07 10:41:00;;;;;;;6.43;3.30;;;;;;;;;;6264065;23;20004;-96
2023/01/07 10:43:38;;;;;;;3.80;2.38;;;;;;;;;;6267544;22;20008;-96
2023/01/07 10:46:17;;;;;;;4.60;2.83;;;;;;;;;;6269385;22;20019;-96
2023/01/07 10:49:03;;;;;;;6.18;2.70;;;;;;;;;;6267988;23;20047;-96
2023/01/07 10:52:01;;;;;;;6.40;2.90;;;;;;;;;;6269157;23;20004;-96
2023/01/07 10:54:50;;;;;;;3.20;1.88;;;;;;;;;;6269312;23;20004;-96
2023/01/07 10:57:32;;;;;;;4.50;2.78;;;;;;;;;;6266072;23;20008;-96
2023/01/07 11:00:14;;;;;;;3.88;2.08;;;;;;;;;;6267956;23;20022;-96
2023/01/07 11:02:52;;;;;;;12.25;3.00;;;;;;;;;;6269129;23;20011;-96
2023/01/07 11:05:23;;;;;;;3.97;2.45;;;;;;;;;;6268912;23;20004;-96
2023/01/07 11:08:01;;;;;;;2.08;1.35;;;;;;;;;;6245533;23;20008;-96
2023/01/07 11:13:34;;;;;;;7.47;2.85;;;;;;;;;;6271410;22;20077;-96
2023/01/07 11:16:13;;;;;;;5.13;2.55;;;;;;;;;;6267914;23;20059;-96
2023/01/07 11:18:49;;;;;;;3.60;1.90;;;;;;;;;;6268500;23;20056;-96
2023/01/07 11:21:42;;;;;;;4.40;2.47;;;;;;;;;;6269217;23;20561;-96
2023/01/07 11:24:34;;;;;;;3.30;2.03;;;;;;;;;;6227023;23;20011;-96
2023/01/07 11:30:34;;;;;;;5.32;2.22;;;;;;;;;;6282526;22;20016;-96
2023/01/07 11:33:28;;;;;;;4.53;2.13;;;;;;;;;;6300945;22;20227;-96
2023/01/07 11:36:24;;;;;;;4.13;2.45;;;;;;;;;;6270476;22;20034;-96
2023/01/07 11:39:12;;;;;;;4.93;2.17;;;;;;;;;;6239853;23;20010;-96
2023/01/07 11:41:56;;;;;;;;;;;;;;;;;;6240518;23;19997;-96
2023/01/07 11:44:59;;;;;;;9.55;2.58;;;;;;;;;;6240565;23;19959;-96
2023/01/07 11:47:42;;;;;;;2.33;1.35;;;;;;;;;;6232121;23;20000;-96
2023/01/07 11:50:40;;;;;;;4.40;1.80;;;;;;;;;;6239060;23;19993;-96
2023/01/07 11:53:12;;;;;;;2.35;1.13;;;;;;;;;;6206287;23;20005;-96
2023/01/07 11:55:40;;;;;;;3.75;1.85;;;;;;;;;;6231707;23;20020;-96
2023/01/07 11:58:17;;;;;;;6.38;1.75;;;;;;;;;;6232746;23;20008;-96
2023/01/07 12:00:48;;;;;;;2.60;1.33;;;;;;;;;;6234305;23;20005;-96
2023/01/07 12:03:17;;;;;;;1.95;1.00;;;;;;;;;;6234867;23;20016;-96
2023/01/07 12:05:44;;;;;;;3.35;1.88;;;;;;;;;;6209336;23;20009;-96
2023/01/07 12:08:18;;;;;;;9.00;1.60;;;;;;;;;;6234164;23;20008;-96
2023/01/07 12:10:45;;;;;;;8.70;2.58;;;;;;;;;;6233718;23;20060;-96
2023/01/07 12:13:24;;;;;;;3.90;1.20;;;;;;;;;;6235372;23;20005;-96
2023/01/07 12:16:06;;;;;;;5.32;1.58;;;;;;;;;;6233881;23;20005;-96
2023/01/07 12:18:35;;;;;;;4.50;2.30;;;;;;;;;;6234102;23;20009;-96
2023/01/07 12:21:19;;;;;;;3.85;1.60;;;;;;;;;;6233531;23;20012;-96
2023/01/07 12:24:00;;;;;;;4.30;2.30;;;;;;;;;;6237953;23;19992;-96
2023/01/07 12:26:41;;;;;;;4.07;1.52;;;;;;;;;;6239607;22;20032;-96
2023/01/07 12:29:14;;;;;;;5.95;1.83;;;;;;;;;;6251748;23;20008;-96
2023/01/07 12:31:57;;;;;;;2.50;1.70;;;;;;;;;;6268599;23;20034;-96
2023/01/07 12:34:36;;;;;;;4.93;1.85;;;;;;;;;;6265598;23;20008;-96
2023/01/07 12:37:18;;;;;;;2.53;1.25;;;;;;;;;;6264008;23;20019;-96
2023/01/07 12:39:45;;;;;;;4.18;1.80;;;;;;;;;;6261758;23;20004;-96
2023/01/07 12:42:21;;;;;;;3.28;1.88;;;;;;;;;;6263266;23;20015;-96
2023/01/07 12:44:50;;;;;;;2.40;1.60;;;;;;;;;;6264124;23;20008;-96
2023/01/07 12:47:37;;;;;;;1.63;1.30;;;;;;;;;;6267192;23;20337;-96
2023/01/07 12:50:03;;;;;;;;;;;;;;;;;;6265239;23;20012;-96
2023/01/07 12:52:47;;;;;;;2.50;1.63;;;;;;;;;;6264071;23;19904;-96
2023/01/07 12:55:20;;;;;;;1.65;1.10;;;;;;;;;;6263142;23;20083;-96
2023/01/07 12:58:08;;;;;;;1.65;1.10;;;;;;;;;;6264562;23;20432;-96
2023/01/07 13:00:36;;;;;;;2.97;1.55;;;;;;;;;;6265872;23;20000;-96
2023/01/07 13:03:12;;;;;;;2.90;1.38;;;;;;;;;;6265637;23;20008;-96
2023/01/07 13:05:43;;;;;;;4.78;1.60;;;;;;;;;;6266242;22;20024;-96
2023/01/07 13:08:24;;;;;;;6.07;3.13;;;;;;;;;;6265279;23;20019;-96
2023/01/07 13:10:56;;;;;;;5.13;1.52;;;;;;;;;;6264453;23;20008;-96
2023/01/07 13:13:40;;;;;;;3.13;1.55;;;;;;;;;;6264357;23;20004;-96
2023/01/07 13:16:13;;;;;;;0.63;0.63;;;;;;;;;;6267046;23;20020;-96
2023/01/07 13:18:43;;;;;;;2.00;1.35;;;;;;;;;;6264395;23;19996;-96
2023/01/07 13:21:11;;;;;;;5.18;1.70;;;;;;;;;;6265610;23;20007;-96
2023/01/07 13:23:47;;;;;;;2.15;1.40;;;;;;;;;;6266503;22;20024;-96
2023/01/07 13:26:24;;;;;;;1.37;1.20;;;;;;;;;;6265523;22;20046;-96
2023/01/07 13:28:56;;;;;;;0.68;0.68;;;;;;;;;;6264510;23;20011;-96
2023/01/07 13:31:29;;;;;;;1.02;0.75;;;;;;;;;;6267089;23;20416;-96
2023/01/07 13:34:13;;;;;;;4.03;1.15;;;;;;;;;;6266701;23;20080;-96
2023/01/07 13:37:06;;;;;;;1.88;1.40;;;;;;;;;;6267151;23;20004;-96
2023/01/07 13:40:15;;;;;;;3.88;1.50;;;;;;;;;;6244639;22;20034;-96
2023/01/07 13:42:44;;;;;;;2.08;1.15;;;;;;;;;;6219619;23;20092;-96
2023/01/07 13:45:20;;;;;;;2.20;1.00;;;;;;;;;;6268636;23;20091;-96
2023/01/07 13:47:57;;;;;;;1.23;1.13;;;;;;;;;;6266186;23;20011;-96
2023/01/07 13:53:47;;;;;;;2.00;1.27;;;;;;;;;;6267550;23;20019;-96
2023/01/07 13:56:16;;;;;;;0.70;0.68;;;;;;;;;;6267882;23;20031;-96
2023/01/07 13:58:46;;;;;;;1.55;1.15;;;;;;;;;;6268360;23;20030;-96
2023/01/07 14:01:18;;;;;;;3.55;1.40;;;;;;;;;;6268174;23;20000;-96
2023/01/07 14:04:05;;;;;;;3.70;1.63;;;;;;;;;;6265166;23;20004;-96
2023/01/07 14:06:37;;;;;;;5.22;1.50;;;;;;;;;;6263355;23;20004;-96
2023/01/07 14:09:07;;;;;;;4.60;1.50;;;;;;;;;;6265654;23;20031;-96
2023/01/07 14:11:40;;;;;;;3.80;1.40;;;;;;;;;;6266225;23;20004;-96
2023/01/07 14:14:17;;;;;;;2.28;1.30;;;;;;;;;;6265987;23;20004;-96
2023/01/07 14:17:08;;;;;;;6.40;1.27;;;;;;;;;;6267816;23;20083;-96
2023/01/07 14:19:57;;;;;;;3.92;1.38;;;;;;;;;;6269738;22;20048;-96
2023/01/07 14:22:51;;;;;;;5.53;1.80;;;;;;;;;;6267234;22;19992;-96
2023/01/07 14:25:45;;;;;;;4.25;1.48;;;;;;;;;;6270674;22;20060;-96
2023/01/07 14:28:21;;;;;;;2.30;1.52;;;;;;;;;;6273056;22;20439;-96
2023/01/07 14:30:47;;;;;;;;;;;;;;;;;;6273370;22;20038;-96
2023/01/07 14:33:32;;;;;;;4.82;2.00;;;;;;;;;;6268455;22;19898;-96
2023/01/07 14:36:02;;;;;;;2.35;1.63;;;;;;;;;;6270244;22;19999;-96
2023/01/07 14:38:31;;;;;;;4.10;2.35;;;;;;;;;;6268473;22;20004;-96
2023/01/07 14:41:02;;;;;;;2.88;1.42;;;;;;;;;;6271240;22;19999;-96
2023/01/07 14:44:03;;;;;;;3.15;1.45;;;;;;;;;;6271045;22;20027;-96
2023/01/07 14:46:53;;;;;;;3.67;1.73;;;;;;;;;;6247584;22;20008;-96
2023/01/07 14:49:40;;;;;;;3.08;1.70;;;;;;;;;;6272033;22;20008;-96
2023/01/07 14:52:22;;;;;;;3.38;1.85;;;;;;;;;;6270112;22;20063;-96
2023/01/07 14:54:49;;;;;;;2.35;1.38;;;;;;;;;;6273603;22;20004;-96
2023/01/07 14:57:26;;;;;;;2.15;1.63;;;;;;;;;;6298677;22;19999;-96
2023/01/07 15:00:14;;;;;;;6.20;1.35;;;;;;;;;;6273855;22;20010;-96
2023/01/07 15:02:59;;;;;;;4.20;1.70;;;;;;;;;;6269970;22;20011;-96
2023/01/07 15:05:25;;;;;;;1.67;1.42;;;;;;;;;;6252748;22;20004;-96
2023/01/07 15:15:59;;;;;;;3.53;1.65;;;;;;;;;;6253232;22;20014;-96
2023/01/07 15:16:16;;;;;;;9.37;2.23;;;;;;;;;;6287022;22;20503;-96
2023/01/07 15:18:50;;;;;;;2.42;1.42;;;;;;;;;;6234353;22;20043;-96
2023/01/07 15:21:33;;;;;;;5.72;1.92;;;;;;;;;;6262835;22;20004;-96
2023/01/07 15:24:02;;;;;;;3.75;2.35;;;;;;;;;;6262216;22;20007;-96
2023/01/07 15:26:35;;;;;;;3.08;2.10;;;;;;;;;;6256355;22;20051;-96
2023/01/07 15:29:20;;;;;;;3.65;1.92;;;;;;;;;;6256272;23;20012;-96
2023/01/07 15:32:05;;;;;;;3.25;1.70;;;;;;;;;;6258569;23;20357;-96
2023/01/07 15:34:38;;;;;;;3.13;1.15;;;;;;;;;;6260669;23;20014;-96
2023/01/07 15:37:06;;;;;;;2.88;1.83;;;;;;;;;;6260778;23;20091;-96
2023/01/07 15:39:33;;;;;;;3.63;2.00;;;;;;;;;;6259268;23;20007;-96
2023/01/07 15:42:00;;;;;;;4.53;2.00;;;;;;;;;;6259048;23;20007;-96
2023/01/07 15:44:40;;;;;;;2.55;1.52;;;;;;;;;;6257641;23;20098;-96
2023/01/07 15:47:26;;;;;;;2.85;1.60;;;;;;;;;;6256461;23;20011;-96
2023/01/07 15:49:52;;;;;;;3.10;2.00;;;;;;;;;;6253590;23;20011;-96
2023/01/07 15:52:24;;;;;;;5.05;2.15;;;;;;;;;;6227740;23;20094;-96
2023/01/07 15:54:50;;;;;;;3.03;1.83;;;;;;;;;;6251714;23;20034;-96
2023/01/07 15:57:22;;;;;;;4.07;1.90;;;;;;;;;;6226932;23;20086;-96
2023/01/07 15:59:49;;;;;;;1.80;1.40;;;;;;;;;;6251870;23;20487;-96
2023/01/07 16:02:22;;;;;;;2.88;1.77;;;;;;;;;;6251112;23;20004;-96
2023/01/07 16:04:50;;;;;;;2.95;1.67;;;;;;;;;;6252506;23;20051;-96
2023/01/07 16:07:25;;;;;;;4.57;2.03;;;;;;;;;;6253064;23;20008;-96
2023/01/07 16:09:52;;;;;;;4.45;2.53;;;;;;;;;;6252555;23;20084;-96
2023/01/07 16:12:37;;;;;;;4.50;2.22;;;;;;;;;;6227315;23;20014;-96